Aérodrome :







RETROUVEZ-NOUS SUR...

 
LOGIN :

S'inscrire | Disclaimer

   EN    FR    IT 

 









Légende :    VFR   VFR Marginal   IFR   IFR Intensif   IFR Très Intensif
Visi : 
Plafond : 
>= 8 km
>= 3000ft
5 à 8 km
1000 à 3000 ft
1500m à 5 km
500 à 1000 ft
800 à 1500m
200 à 500 ft
< 800m
< 200 ft
Symboles :   Orages  Brouillard  Fortes neiges  Fortes précipitations  Vent > 20 kt






- Altitude de l'aérodrome : 100 ft
- Code IATA : PSM


KPSM - Portsmouth International at Pease

DERNIER METAR :
  • 261556Z 04008KT 10SM OVC065 09/00 A2999 RMK AO2A SLP159 T00921001

METARs EXPIRÉS :
  • 261456Z 03007KT 10SM FEW065 BKN085 09/01 A2999 RMK AO2A SLP159 T00930010 50007
  • 261356Z 01005KT 10SM OVC065 07/01 A3000 RMK AO2A SLP162 T00700007

TAF KPSM
Valide du 26 à 12h jusqu'au 27 à 12h UTC


261122Z 2612/2712 01005KT P6SM VCSH OVC060
FM261400 04005KT P6SM OVC035
FM270000 05004KT 5SM BR OVC015
FM270700 06014G27KT 2SM RA BR OVC009
FM271000 07024G45KT 1/2SM +RA FG VV005



MET'MAP, la Météo Aéronautique d'un coup d'oeil ! - Copyright ORBIFLY Décembre 2007 - Disclaimer

ORBIFLY MET'MAP TEAM :

Programmation & Développement : Alexandra Zaïnal
Sur une idée originale de : Baudouin d'Aumeries
Assistance à la programmation : Marc-Olivier Méhu
Soutien technique & logistique : Manuel Goepfert

Contact : metmap@orbifly.com




SOURCES & CREDITS :

   NOAA